createdAt,value
2022-12-31T00:00:35.043Z,3.43
2022-12-31T00:03:03.451Z,3.87
2022-12-31T00:05:31.799Z,2.13
2022-12-31T00:08:01.563Z,1.87
2022-12-31T00:10:30.144Z,2.80
2022-12-31T00:12:58.028Z,1.70
2022-12-31T00:15:25.978Z,1.73
2022-12-31T00:17:53.923Z,1.30
2022-12-31T00:20:21.864Z,1.47
2022-12-31T00:22:49.779Z,2.27
2022-12-31T00:25:19.097Z,2.90
2022-12-31T00:27:47.088Z,1.57
2022-12-31T00:30:15.615Z,2.60
2022-12-31T00:32:43.749Z,4.37
2022-12-31T00:35:11.716Z,2.47
2022-12-31T00:37:39.663Z,5.63
2022-12-31T00:40:09.188Z,2.20
2022-12-31T00:42:38.400Z,3.17
2022-12-31T00:45:07.187Z,3.07
2022-12-31T00:47:35.159Z,2.03
2022-12-31T00:50:03.060Z,1.47
2022-12-31T00:52:30.980Z,1.53
2022-12-31T00:54:58.928Z,6.17
2022-12-31T00:57:26.826Z,2.53
2022-12-31T00:59:56.087Z,5.10
2022-12-31T01:02:24.174Z,4.87
2022-12-31T01:04:52.432Z,3.37
2022-12-31T01:07:20.349Z,1.87
2022-12-31T01:09:48.207Z,2.00
2022-12-31T01:12:16.127Z,3.87
2022-12-31T01:14:44.217Z,2.00
2022-12-31T01:17:13.598Z,3.47
2022-12-31T01:19:41.467Z,2.00
2022-12-31T01:22:09.325Z,1.87
2022-12-31T01:24:37.284Z,1.80
2022-12-31T01:27:05.286Z,1.87
2022-12-31T01:29:33.337Z,1.60
2022-12-31T01:32:01.265Z,1.40
2022-12-31T01:34:30.476Z,1.37
2022-12-31T01:36:58.405Z,1.73
2022-12-31T01:39:26.462Z,0.90
2022-12-31T01:41:54.449Z,1.03
2022-12-31T01:44:48.574Z,0.70
2022-12-31T01:47:20.476Z,0.70
2022-12-31T01:49:53.360Z,1.00
2022-12-31T01:52:25.443Z,2.53
2022-12-31T01:54:57.049Z,5.23
2022-12-31T01:57:25.928Z,1.60
2022-12-31T01:59:55.479Z,0.80
2022-12-31T02:02:24.141Z,0.60
2022-12-31T02:04:56.492Z,0.80
2022-12-31T02:07:24.860Z,0.87
2022-12-31T02:09:54.415Z,1.30
2022-12-31T02:12:22.645Z,1.03
2022-12-31T02:14:54.068Z,0.63
2022-12-31T02:17:32.682Z,0.30
2022-12-31T02:20:32.212Z,0.30
2022-12-31T02:23:25.408Z,0.30
2022-12-31T02:26:33.623Z,0.50
2022-12-31T02:29:40.472Z,0.60
2022-12-31T02:32:15.851Z,1.80
2022-12-31T02:34:48.909Z,0.53
2022-12-31T02:37:18.416Z,1.30
2022-12-31T02:39:46.976Z,0.40
2022-12-31T02:42:14.848Z,0.47
2022-12-31T02:44:43.350Z,0.43
2022-12-31T02:47:28.158Z,0.50
2022-12-31T02:50:12.722Z,0.50
2022-12-31T02:52:52.259Z,1.17
2022-12-31T02:55:26.627Z,0.70
2022-12-31T02:58:02.963Z,2.33
2022-12-31T03:00:51.428Z,1.03
2022-12-31T03:03:21.344Z,0.60
2022-12-31T03:05:50.867Z,0.60
2022-12-31T03:08:23.025Z,0.60
2022-12-31T03:10:50.997Z,0.60
2022-12-31T03:13:18.517Z,0.60
2022-12-31T03:15:49.226Z,1.07
2022-12-31T03:18:40.868Z,0.50
2022-12-31T03:21:32.152Z,1.90
2022-12-31T03:24:17.819Z,1.40
2022-12-31T03:26:45.672Z,0.47
2022-12-31T03:29:13.581Z,1.50
2022-12-31T03:31:41.508Z,0.40
2022-12-31T03:34:10.863Z,0.40
2022-12-31T03:36:39.556Z,1.00
2022-12-31T03:39:07.435Z,0.60
2022-12-31T03:41:35.284Z,0.67
2022-12-31T03:44:04.241Z,0.93
2022-12-31T03:46:32.224Z,0.93
2022-12-31T03:49:00.121Z,0.70
2022-12-31T03:51:29.334Z,2.67
2022-12-31T03:53:57.311Z,1.43
2022-12-31T03:56:25.303Z,2.43
2022-12-31T03:58:53.523Z,1.37
2022-12-31T04:01:24.231Z,3.07
2022-12-31T04:03:52.268Z,1.53
2022-12-31T04:06:20.199Z,2.70
2022-12-31T04:08:49.435Z,3.00
2022-12-31T04:11:20.859Z,3.67
2022-12-31T04:13:49.255Z,3.47
2022-12-31T04:16:17.187Z,2.77
2022-12-31T04:18:45.181Z,1.70
2022-12-31T04:21:13.071Z,2.37
2022-12-31T04:23:41.299Z,1.03
2022-12-31T04:26:10.528Z,1.50
2022-12-31T04:28:38.482Z,2.50
2022-12-31T04:31:06.643Z,1.63
2022-12-31T04:33:34.546Z,2.90
2022-12-31T04:36:02.833Z,2.37
2022-12-31T04:38:31.089Z,3.97
2022-12-31T04:41:16.644Z,3.27
2022-12-31T04:43:48.755Z,1.97
2022-12-31T04:46:18.056Z,4.87
2022-12-31T04:48:46.255Z,3.03
2022-12-31T04:51:14.619Z,1.03
2022-12-31T04:53:43.038Z,2.03
2022-12-31T04:56:12.320Z,3.40
2022-12-31T04:58:40.744Z,1.67
2022-12-31T05:01:10.843Z,2.27
2022-12-31T05:03:39.228Z,2.03
2022-12-31T05:06:10.630Z,1.80
2022-12-31T05:08:38.603Z,1.83
2022-12-31T05:11:06.629Z,2.10
2022-12-31T05:13:34.623Z,3.47
2022-12-31T05:16:03.010Z,3.07
2022-12-31T05:18:33.061Z,2.57
2022-12-31T05:21:01.610Z,1.47
2022-12-31T05:23:29.532Z,2.00
2022-12-31T05:25:59.513Z,1.67
2022-12-31T05:28:27.466Z,1.77
2022-12-31T05:30:55.489Z,1.47
2022-12-31T05:33:23.439Z,2.43
2022-12-31T05:35:52.704Z,1.53
2022-12-31T05:38:20.680Z,2.20
2022-12-31T05:40:48.594Z,1.53
2022-12-31T05:43:16.455Z,1.20
2022-12-31T05:45:44.403Z,3.00
2022-12-31T05:48:12.300Z,1.60
2022-12-31T05:50:40.154Z,3.00
2022-12-31T05:53:10.970Z,2.17
2022-12-31T05:55:38.859Z,4.20
2022-12-31T05:58:06.824Z,1.87
2022-12-31T06:00:34.758Z,2.53
2022-12-31T06:03:02.801Z,1.73
2022-12-31T06:05:30.767Z,2.33
2022-12-31T06:07:58.662Z,4.27
2022-12-31T06:10:27.883Z,1.43
2022-12-31T06:12:55.785Z,1.70
2022-12-31T06:15:23.670Z,1.97
2022-12-31T06:17:51.551Z,1.77
2022-12-31T06:20:19.516Z,2.60
2022-12-31T06:22:47.475Z,2.10
2022-12-31T06:25:15.425Z,1.43
2022-12-31T06:27:44.627Z,5.87
2022-12-31T06:30:13.671Z,1.20
2022-12-31T06:32:42.069Z,1.47
2022-12-31T06:35:10.654Z,2.83
2022-12-31T06:37:38.605Z,1.53
2022-12-31T06:40:08.050Z,2.73
2022-12-31T06:42:35.966Z,2.40
2022-12-31T06:45:05.975Z,1.97
2022-12-31T06:47:33.926Z,1.83
2022-12-31T06:50:01.848Z,3.03
2022-12-31T06:52:29.760Z,1.73
2022-12-31T06:54:58.167Z,2.50
2022-12-31T06:57:26.923Z,1.93
2022-12-31T06:59:55.160Z,2.17
2022-12-31T07:02:53.454Z,2.40
2022-12-31T07:05:40.324Z,2.80
2022-12-31T07:08:22.736Z,3.37
2022-12-31T07:10:54.609Z,2.17
2022-12-31T07:13:47.245Z,2.00
2022-12-31T07:16:24.686Z,1.67
2022-12-31T07:19:02.249Z,1.90
2022-12-31T07:21:35.935Z,2.43
2022-12-31T07:24:06.400Z,4.00
2022-12-31T07:26:56.512Z,1.73
2022-12-31T07:29:36.696Z,2.10
2022-12-31T07:32:14.590Z,3.33
2022-12-31T07:34:51.892Z,3.83
2022-12-31T07:37:29.481Z,2.40
2022-12-31T07:40:06.764Z,2.40
2022-12-31T07:42:41.788Z,2.40
2022-12-31T07:45:17.674Z,3.53
2022-12-31T07:47:47.522Z,2.57
2022-12-31T07:50:18.884Z,3.33
2022-12-31T07:52:47.619Z,1.90
2022-12-31T07:55:15.667Z,2.97
2022-12-31T07:57:53.575Z,1.23
2022-12-31T08:00:22.247Z,3.87
2022-12-31T08:03:18.531Z,2.03
2022-12-31T08:05:54.361Z,2.33
2022-12-31T08:08:33.106Z,6.37
2022-12-31T08:11:12.563Z,1.50
2022-12-31T08:13:42.404Z,2.17
2022-12-31T08:16:12.698Z,2.53
2022-12-31T08:18:41.538Z,2.10
2022-12-31T08:21:22.031Z,2.80
2022-12-31T08:24:00.587Z,1.90
2022-12-31T08:26:36.076Z,2.40
2022-12-31T08:29:14.390Z,1.70
2022-12-31T08:31:50.821Z,2.30
2022-12-31T08:34:27.195Z,1.33
2022-12-31T08:37:02.224Z,1.40
2022-12-31T08:39:50.131Z,1.67
2022-12-31T08:42:23.545Z,3.90
2022-12-31T08:44:58.808Z,1.93
2022-12-31T08:47:38.256Z,1.67
2022-12-31T08:50:08.501Z,2.63
2022-12-31T08:52:38.463Z,2.23
2022-12-31T08:55:07.382Z,2.23
2022-12-31T08:57:43.079Z,2.30
2022-12-31T09:00:14.139Z,1.93
2022-12-31T09:03:13.024Z,2.23
2022-12-31T09:05:54.628Z,3.37
2022-12-31T09:08:31.398Z,2.07
2022-12-31T09:11:05.073Z,1.80
2022-12-31T09:13:44.409Z,4.00
2022-12-31T09:16:19.495Z,2.57
2022-12-31T09:18:47.799Z,1.47
2022-12-31T09:21:16.772Z,4.07
2022-12-31T09:23:46.680Z,3.50
2022-12-31T09:26:31.849Z,3.57
2022-12-31T09:29:06.065Z,2.63
2022-12-31T09:31:38.988Z,2.07
2022-12-31T09:34:13.701Z,5.20
2022-12-31T09:36:47.455Z,2.90
2022-12-31T09:39:26.282Z,2.70
2022-12-31T09:42:19.067Z,4.40
2022-12-31T09:45:25.918Z,2.77
2022-12-31T09:48:31.683Z,3.47
2022-12-31T09:51:13.176Z,3.83
2022-12-31T09:53:51.034Z,2.13
2022-12-31T09:56:27.171Z,2.80
2022-12-31T09:59:02.707Z,3.17
2022-12-31T10:01:43.547Z,3.70
2022-12-31T10:04:35.926Z,2.93
2022-12-31T10:07:20.088Z,2.70
2022-12-31T10:09:56.569Z,3.40
2022-12-31T10:12:42.896Z,3.27
2022-12-31T10:15:43.159Z,5.10
2022-12-31T10:18:22.067Z,3.57
2022-12-31T10:21:04.011Z,6.00
2022-12-31T10:24:04.833Z,3.27
2022-12-31T10:26:53.403Z,7.30
2022-12-31T10:29:36.396Z,2.87
2022-12-31T10:32:17.633Z,4.07
2022-12-31T10:34:55.347Z,2.13
2022-12-31T10:37:29.069Z,5.87
2022-12-31T10:40:16.461Z,3.03
2022-12-31T10:43:08.693Z,3.70
2022-12-31T10:46:17.685Z,4.50
2022-12-31T10:49:23.844Z,3.10
2022-12-31T10:52:21.923Z,3.00
2022-12-31T10:55:19.654Z,3.93
2022-12-31T10:58:06.021Z,5.00
2022-12-31T11:00:39.696Z,6.83
2022-12-31T11:03:48.344Z,3.80
2022-12-31T11:06:50.353Z,6.00
2022-12-31T11:10:05.256Z,6.83
2022-12-31T11:13:00.709Z,5.20
2022-12-31T11:16:10.526Z,5.53
2022-12-31T11:18:51.721Z,4.13
2022-12-31T11:21:41.989Z,3.10
2022-12-31T11:24:25.596Z,4.03
2022-12-31T11:27:05.684Z,7.93
2022-12-31T11:29:49.565Z,4.13
2022-12-31T11:32:27.809Z,6.10
2022-12-31T11:35:18.706Z,3.53
2022-12-31T11:37:49.132Z,4.27
2022-12-31T11:40:29.413Z,4.10
2022-12-31T11:43:00.350Z,3.30
2022-12-31T11:45:50.335Z,3.50
2022-12-31T11:48:31.041Z,2.53
2022-12-31T11:51:16.813Z,2.57
2022-12-31T11:54:01.921Z,3.83
2022-12-31T11:56:36.311Z,5.40
2022-12-31T11:59:15.694Z,3.80
2022-12-31T12:01:55.989Z,4.50
2022-12-31T12:04:23.865Z,4.47
2022-12-31T12:06:53.581Z,3.77
2022-12-31T12:09:27.775Z,3.27
2022-12-31T12:12:00.911Z,3.63
2022-12-31T12:14:33.156Z,4.23
2022-12-31T12:17:05.098Z,4.03
2022-12-31T12:19:35.890Z,3.33
2022-12-31T12:22:13.519Z,4.37
2022-12-31T12:24:52.405Z,5.10
2022-12-31T12:27:27.705Z,2.93
2022-12-31T12:29:55.619Z,4.47
2022-12-31T12:32:26.411Z,3.27
2022-12-31T12:34:54.438Z,5.53
2022-12-31T12:37:33.274Z,5.33
2022-12-31T12:40:03.474Z,6.47
2022-12-31T12:42:32.201Z,2.97
2022-12-31T12:45:03.899Z,3.87
2022-12-31T12:47:32.660Z,6.47
2022-12-31T12:50:01.212Z,4.17
2022-12-31T12:53:01.347Z,5.93
2022-12-31T12:55:39.218Z,2.67
2022-12-31T12:58:19.351Z,4.27
2022-12-31T13:00:52.364Z,6.93
2022-12-31T13:07:17.757Z,5.93
2022-12-31T13:10:14.926Z,6.00
2022-12-31T13:13:22.762Z,3.67
2022-12-31T13:15:43.310Z,3.20
2022-12-31T13:18:21.206Z,3.10
2022-12-31T13:20:56.855Z,6.37
2022-12-31T13:23:32.532Z,5.80
2022-12-31T13:26:12.198Z,5.20
2022-12-31T13:28:42.821Z,8.23
2022-12-31T13:31:16.148Z,6.53
2022-12-31T13:33:48.197Z,7.17
2022-12-31T13:36:20.158Z,5.70
2022-12-31T13:38:52.214Z,4.50
2022-12-31T13:41:27.158Z,10.37
2022-12-31T13:44:01.418Z,4.90
2022-12-31T13:46:39.577Z,8.63
2022-12-31T13:49:17.900Z,4.23
2022-12-31T13:51:48.302Z,8.23
2022-12-31T13:54:29.835Z,6.90
2022-12-31T13:57:04.800Z,9.03
2022-12-31T13:59:37.652Z,8.33
2022-12-31T14:02:17.593Z,6.07
2022-12-31T14:04:51.417Z,6.77
2022-12-31T14:07:26.644Z,6.43
2022-12-31T14:09:57.051Z,8.70
2022-12-31T14:12:34.488Z,5.87
2022-12-31T14:15:09.403Z,6.57
2022-12-31T14:17:44.775Z,8.10
2022-12-31T14:20:24.126Z,6.27
2022-12-31T14:23:00.225Z,5.00
2022-12-31T14:25:34.526Z,5.13
2022-12-31T14:28:07.396Z,6.87
2022-12-31T14:30:39.719Z,6.23
2022-12-31T14:33:25.081Z,5.97
2022-12-31T14:36:09.975Z,7.50
2022-12-31T14:38:49.924Z,5.13
2022-12-31T14:41:28.913Z,6.20
2022-12-31T14:44:09.715Z,7.57
2022-12-31T14:46:44.078Z,6.80
2022-12-31T14:49:25.871Z,5.90
2022-12-31T14:51:53.801Z,6.10
2022-12-31T14:54:29.055Z,8.20
2022-12-31T14:56:57.285Z,7.70
2022-12-31T14:59:28.828Z,7.83
2022-12-31T15:01:58.042Z,6.83
2022-12-31T15:04:33.971Z,6.57
2022-12-31T15:07:11.965Z,6.80
2022-12-31T15:10:00.502Z,5.20
2022-12-31T15:12:50.297Z,7.43
2022-12-31T15:15:36.714Z,8.23
2022-12-31T15:18:33.106Z,5.37
2022-12-31T15:21:25.216Z,6.77
2022-12-31T15:23:53.379Z,5.90
2022-12-31T15:26:24.984Z,5.20
2022-12-31T15:29:02.389Z,3.93
2022-12-31T15:31:33.801Z,4.83
2022-12-31T15:34:04.999Z,5.67
2022-12-31T15:36:35.422Z,5.07
2022-12-31T15:39:38.133Z,4.13
2022-12-31T15:42:37.767Z,3.90
2022-12-31T15:45:13.682Z,5.90
2022-12-31T15:47:49.743Z,3.63
2022-12-31T15:50:21.253Z,4.77
2022-12-31T15:52:54.001Z,4.50
2022-12-31T15:55:28.083Z,2.90
2022-12-31T15:58:00.189Z,5.80
2022-12-31T16:00:39.269Z,6.90
2022-12-31T16:03:21.980Z,4.00
2022-12-31T16:05:50.501Z,8.50
2022-12-31T16:08:22.013Z,6.10
2022-12-31T16:10:50.227Z,8.27
2022-12-31T16:13:23.560Z,7.13
2022-12-31T16:15:54.700Z,4.30
2022-12-31T16:18:24.159Z,7.00
2022-12-31T16:20:54.229Z,6.63
2022-12-31T16:23:24.222Z,4.90
2022-12-31T16:25:53.507Z,2.97
2022-12-31T16:28:24.089Z,5.17
2022-12-31T16:31:01.091Z,4.60
2022-12-31T16:33:32.043Z,6.30
2022-12-31T16:36:01.799Z,4.40
2022-12-31T16:38:34.234Z,3.47
2022-12-31T16:41:15.857Z,7.03
2022-12-31T16:43:45.192Z,5.73
2022-12-31T16:46:18.496Z,4.20
2022-12-31T16:48:49.411Z,5.23
2022-12-31T16:51:20.750Z,17.50
2022-12-31T16:53:49.976Z,14.53
2022-12-31T16:56:25.565Z,11.07
2022-12-31T16:59:00.545Z,7.33
2022-12-31T17:01:32.603Z,6.00
2022-12-31T17:04:05.794Z,6.53
2022-12-31T17:06:33.833Z,5.90
2022-12-31T17:09:14.835Z,5.40
2022-12-31T17:11:51.336Z,7.43
2022-12-31T17:14:20.821Z,6.33
2022-12-31T17:17:03.158Z,7.27
2022-12-31T17:19:41.353Z,6.33
2022-12-31T17:22:17.318Z,5.60
2022-12-31T17:24:48.672Z,7.53
2022-12-31T17:27:16.887Z,4.87
2022-12-31T17:29:45.068Z,7.40
2022-12-31T17:32:30.682Z,4.10
2022-12-31T17:35:00.103Z,7.07
2022-12-31T17:37:29.296Z,7.77
2022-12-31T17:40:17.353Z,5.40
2022-12-31T17:42:49.342Z,5.73
2022-12-31T17:45:21.186Z,6.17
2022-12-31T17:47:53.569Z,5.87
2022-12-31T17:50:24.220Z,5.57
2022-12-31T17:52:56.275Z,6.93
2022-12-31T17:55:24.366Z,6.03
2022-12-31T17:57:54.900Z,7.30
2022-12-31T18:00:25.981Z,6.83
2022-12-31T18:02:54.170Z,13.07
2022-12-31T18:05:25.007Z,8.67
2022-12-31T18:07:53.459Z,7.60
2022-12-31T18:10:23.616Z,7.17
2022-12-31T18:12:51.889Z,6.60
2022-12-31T18:15:25.138Z,13.27
2022-12-31T18:17:53.131Z,6.63
2022-12-31T18:20:21.244Z,7.60
2022-12-31T18:22:50.679Z,9.93
2022-12-31T18:25:21.547Z,10.67
2022-12-31T18:27:50.064Z,8.30
2022-12-31T18:30:18.633Z,7.13
2022-12-31T18:32:47.563Z,6.80
2022-12-31T18:35:40.803Z,6.53
2022-12-31T18:38:12.924Z,10.40
2022-12-31T18:40:44.258Z,6.50
2022-12-31T18:43:16.866Z,8.57
2022-12-31T18:45:45.131Z,8.93
2022-12-31T18:48:13.369Z,7.23
2022-12-31T18:50:42.099Z,5.80
2022-12-31T18:53:16.138Z,5.83
2022-12-31T18:55:48.485Z,8.60
2022-12-31T18:58:16.697Z,7.10
2022-12-31T19:00:45.703Z,6.40
2022-12-31T19:03:17.880Z,6.00
2022-12-31T19:05:49.591Z,6.73
2022-12-31T19:08:19.301Z,8.30
2022-12-31T19:10:47.753Z,9.30
2022-12-31T19:13:17.225Z,10.10
2022-12-31T19:15:47.557Z,9.63
2022-12-31T19:18:15.627Z,8.73
2022-12-31T19:20:43.573Z,9.77
2022-12-31T19:23:16.338Z,10.80
2022-12-31T19:25:46.419Z,7.30
2022-12-31T19:28:17.485Z,7.67
2022-12-31T19:30:45.758Z,7.07
2022-12-31T19:33:14.004Z,6.83
2022-12-31T19:35:42.461Z,6.47
2022-12-31T19:38:18.607Z,8.60
2022-12-31T19:40:48.552Z,11.80
2022-12-31T19:43:18.560Z,9.30
2022-12-31T19:45:47.037Z,13.70
2022-12-31T19:48:16.355Z,8.17
2022-12-31T19:50:46.824Z,8.13
2022-12-31T19:53:17.037Z,8.53
2022-12-31T19:55:44.988Z,11.20
2022-12-31T19:58:19.075Z,10.50
2022-12-31T20:00:54.584Z,10.33
2022-12-31T20:03:25.174Z,7.13
2022-12-31T20:06:01.144Z,9.67
2022-12-31T20:08:29.036Z,11.73
2022-12-31T20:10:58.841Z,8.30
2022-12-31T20:13:28.385Z,6.20
2022-12-31T20:15:56.306Z,9.13
2022-12-31T20:18:24.204Z,8.43
2022-12-31T20:20:55.845Z,7.03
2022-12-31T20:23:24.086Z,11.13
2022-12-31T20:25:58.093Z,9.07
2022-12-31T20:28:26.034Z,9.37
2022-12-31T20:30:55.665Z,10.40
2022-12-31T20:33:23.642Z,9.03
2022-12-31T20:35:51.976Z,11.10
2022-12-31T20:38:19.879Z,14.33
2022-12-31T20:40:47.783Z,10.43
2022-12-31T20:43:15.669Z,8.80
2022-12-31T20:45:44.663Z,11.80
2022-12-31T20:48:13.957Z,10.40
2022-12-31T20:50:41.977Z,13.10
2022-12-31T20:53:09.827Z,8.27
2022-12-31T20:55:39.021Z,9.87
2022-12-31T20:58:25.449Z,10.97
2022-12-31T21:00:53.557Z,9.23
2022-12-31T21:04:03.279Z,9.70
2022-12-31T21:06:11.283Z,9.30
2022-12-31T21:08:39.947Z,12.23
2022-12-31T21:11:28.588Z,10.00
2022-12-31T21:13:56.862Z,9.80
2022-12-31T21:16:25.792Z,10.07
2022-12-31T21:18:55.417Z,12.47
2022-12-31T21:21:24.067Z,10.57
2022-12-31T21:23:52.041Z,10.83
2022-12-31T21:26:19.961Z,9.17
2022-12-31T21:28:47.807Z,9.53
2022-12-31T21:31:16.211Z,9.03
2022-12-31T21:33:46.002Z,8.77
2022-12-31T21:36:15.838Z,9.70
2022-12-31T21:38:44.305Z,9.83
2022-12-31T21:41:34.832Z,7.77
2022-12-31T21:44:03.868Z,6.93
2022-12-31T21:46:31.998Z,8.30
2022-12-31T21:49:01.184Z,8.80
2022-12-31T21:51:30.888Z,8.73
2022-12-31T21:53:59.213Z,11.50
2022-12-31T21:56:26.198Z,10.03
2022-12-31T21:59:14.341Z,7.13
2022-12-31T22:02:00.276Z,8.37
2022-12-31T22:05:01.468Z,8.30
2022-12-31T22:07:18.446Z,8.43
2022-12-31T22:09:46.765Z,7.50
2022-12-31T22:12:14.605Z,7.53
2022-12-31T22:15:14.833Z,10.70
2022-12-31T22:17:30.426Z,8.60
2022-12-31T22:20:25.929Z,8.87
2022-12-31T22:22:47.553Z,9.73
2022-12-31T22:25:15.798Z,9.60
2022-12-31T22:27:53.141Z,10.40
2022-12-31T22:30:32.100Z,10.17
2022-12-31T22:33:00.099Z,7.33
2022-12-31T22:35:28.046Z,7.10
2022-12-31T22:38:01.585Z,7.50
2022-12-31T22:40:33.298Z,10.27
2022-12-31T22:43:01.255Z,10.23
2022-12-31T22:45:29.111Z,8.33
2022-12-31T22:47:57.022Z,6.97
2022-12-31T22:50:24.919Z,12.17
2022-12-31T22:52:53.097Z,7.87
2022-12-31T22:55:22.295Z,9.13
2022-12-31T22:57:50.218Z,10.80
2022-12-31T23:00:18.142Z,13.43
2022-12-31T23:02:46.151Z,25.07
2022-12-31T23:05:15.686Z,46.47
2022-12-31T23:07:44.276Z,71.67
2022-12-31T23:10:30.232Z,76.87
2022-12-31T23:13:19.857Z,89.43
2022-12-31T23:16:05.458Z,118.27
2022-12-31T23:18:50.837Z,95.63
2022-12-31T23:21:36.315Z,50.53
2022-12-31T23:24:04.636Z,50.77
2022-12-31T23:26:32.505Z,43.77
2022-12-31T23:29:01.956Z,36.13
2022-12-31T23:31:30.584Z,26.97
2022-12-31T23:33:58.575Z,28.13
2022-12-31T23:36:26.970Z,36.40
2022-12-31T23:38:54.979Z,29.57
2022-12-31T23:41:23.252Z,15.80
2022-12-31T23:43:51.240Z,30.23
2022-12-31T23:46:20.569Z,18.83
2022-12-31T23:48:48.479Z,20.30
2022-12-31T23:51:16.590Z,17.37
2022-12-31T23:53:44.538Z,21.07
2022-12-31T23:56:23.076Z,14.57
2022-12-31T23:58:54.891Z,13.63
